createdAt,value
2023-03-21T00:36:02.385Z,100894.6
2023-03-21T00:37:09.177Z,100895.42
2023-03-21T00:38:13.709Z,100895.7
2023-03-21T00:39:18.033Z,100895.84
2023-03-21T00:40:35.129Z,100889.66
2023-03-21T00:41:50.495Z,100896
2023-03-21T00:42:54.860Z,100897.41
2023-03-21T00:43:59.144Z,100894.05
2023-03-21T00:45:03.457Z,100893.47
2023-03-21T00:46:07.759Z,100893.56
2023-03-21T00:47:12.285Z,100893.47
2023-03-21T00:48:16.826Z,100893.12
2023-03-21T00:49:21.190Z,100892.23
2023-03-21T00:50:25.462Z,100889.86
2023-03-21T00:51:29.744Z,100892.88
2023-03-21T00:52:41.814Z,100897.41
2023-03-21T00:53:46.084Z,100893.63
2023-03-21T00:54:50.399Z,100891.2
2023-03-21T00:55:54.706Z,100897.76
2023-03-21T00:56:59.005Z,100892.06
2023-03-21T00:58:03.780Z,100897
2023-03-21T00:59:08.056Z,100893.39
2023-03-21T01:00:12.391Z,100896.25
2023-03-21T01:01:16.839Z,100890.98
2023-03-21T01:02:21.311Z,100894.19
2023-03-21T01:03:26.753Z,100895.84
2023-03-21T01:04:31.092Z,100900.55
2023-03-21T01:05:35.930Z,100892.33
2023-03-21T01:06:40.775Z,100893.23
2023-03-21T01:07:45.097Z,100889.48
2023-03-21T01:08:54.255Z,100886.53
2023-03-21T01:09:58.611Z,100893.67
2023-03-21T01:11:02.918Z,100890.41
2023-03-21T01:12:07.251Z,100890.34
2023-03-21T01:13:11.556Z,100892.16
2023-03-21T01:14:24.076Z,100895.56
2023-03-21T01:15:28.381Z,100894.46
2023-03-21T01:16:33.161Z,100895.91
2023-03-21T01:17:37.518Z,100894.73
2023-03-21T01:18:41.858Z,100897.59
2023-03-21T01:19:53.212Z,100892.13
2023-03-21T01:20:57.554Z,100888.97
2023-03-21T01:22:01.866Z,100884.36
2023-03-21T01:23:06.153Z,100884.77
2023-03-21T01:24:10.494Z,100885.94
2023-03-21T01:25:23.712Z,100891.09
2023-03-21T01:26:28.015Z,100891.44
2023-03-21T01:27:32.325Z,100886.35
2023-03-21T01:28:36.604Z,100885.94
2023-03-21T01:29:40.957Z,100891.98
2023-03-21T01:30:45.236Z,100894.22
2023-03-21T01:31:49.643Z,100895.08
2023-03-21T01:32:54.055Z,100892.74
2023-03-21T01:33:58.369Z,100884.7
2023-03-21T01:35:02.670Z,100894.5
2023-03-21T01:36:14.646Z,100888.58
2023-03-21T01:37:19.555Z,100890.92
2023-03-21T01:38:23.847Z,100893.88
2023-03-21T01:39:28.175Z,100889.55
2023-03-21T01:40:32.520Z,100890.95
2023-03-21T01:41:44.857Z,100886.94
2023-03-21T01:42:49.308Z,100891.37
2023-03-21T01:43:53.639Z,100889.55
2023-03-21T01:44:57.935Z,100891.95
2023-03-21T01:46:02.470Z,100891.44
2023-03-21T01:47:14.143Z,100884.74
2023-03-21T01:48:18.689Z,100888
2023-03-21T01:49:23.024Z,100893.3
2023-03-21T01:50:27.323Z,100893.63
2023-03-21T01:51:31.610Z,100889.75
2023-03-21T01:52:39.668Z,100895.63
2023-03-21T01:53:44.012Z,100893.3
2023-03-21T01:54:48.306Z,100887.34
2023-03-21T01:55:52.650Z,100891.09
2023-03-21T01:56:56.988Z,100886.55
2023-03-21T01:58:07.708Z,100882.23
2023-03-21T01:59:12.082Z,100881.72
2023-03-21T02:00:16.419Z,100885.19
2023-03-21T02:01:20.834Z,100888
2023-03-21T02:02:25.205Z,100886.25
2023-03-21T02:03:37.076Z,100880.82
2023-03-21T02:04:42.003Z,100879.03
2023-03-21T02:05:46.333Z,100879.48
2023-03-21T02:06:50.699Z,100881.89
2023-03-21T02:07:56.031Z,100877.11
2023-03-21T02:09:00.374Z,100878.28
2023-03-21T02:10:07.761Z,100876.88
2023-03-21T02:11:12.072Z,100881.72
2023-03-21T02:12:16.448Z,100877.35
2023-03-21T02:13:20.794Z,100881.03
2023-03-21T02:14:30.418Z,100876.11
2023-03-21T02:15:34.850Z,100879.62
2023-03-21T02:16:39.747Z,100881.13
2023-03-21T02:17:44.122Z,100882.5
2023-03-21T02:18:48.399Z,100880.89
2023-03-21T02:19:54.791Z,100882.78
2023-03-21T02:20:59.095Z,100879.75
2023-03-21T02:22:03.421Z,100886.31
2023-03-21T02:23:07.793Z,100882.43
2023-03-21T02:24:12.088Z,100877.83
2023-03-21T02:25:25.713Z,100876.49
2023-03-21T02:26:43.965Z,100877.08
2023-03-21T02:27:53.454Z,100875.16
2023-03-21T02:28:57.757Z,100881.44
2023-03-21T02:30:02.122Z,100879.75
2023-03-21T02:31:06.559Z,100873.47
2023-03-21T02:32:36.466Z,100883.98
2023-03-21T02:33:41.679Z,100883.08
2023-03-21T02:34:45.958Z,100880.95
2023-03-21T02:35:58.693Z,100875.46
2023-03-21T02:37:18.156Z,100881.4
2023-03-21T02:38:24.727Z,100880.06
2023-03-21T02:39:29.036Z,100880.89
2023-03-21T02:40:33.361Z,100877.97
2023-03-21T02:41:41.721Z,100881.81
2023-03-21T02:43:00.383Z,100884.97
2023-03-21T02:44:06.274Z,100879.72
2023-03-21T02:45:10.638Z,100883.29
2023-03-21T02:46:15.089Z,100879.38
2023-03-21T02:47:19.531Z,100878.45
2023-03-21T02:48:41.240Z,100879.78
2023-03-21T02:49:54.270Z,100880.61
2023-03-21T02:50:58.596Z,100880.2
2023-03-21T02:52:23.084Z,100876.25
2023-03-21T02:53:42.132Z,100883.94
2023-03-21T02:54:49.684Z,100885.21
2023-03-21T02:55:54.016Z,100882.46
2023-03-21T02:56:58.324Z,100884.28
2023-03-21T02:58:13.760Z,100886.2
2023-03-21T02:59:18.145Z,100885.96
2023-03-21T03:00:22.479Z,100883.42
2023-03-21T03:01:26.883Z,100880.27
2023-03-21T03:02:31.231Z,100887.85
2023-03-21T03:03:36.089Z,100887.72
2023-03-21T03:04:40.507Z,100890.33
2023-03-21T03:05:44.885Z,100884.18
2023-03-21T03:06:49.176Z,100883.28
2023-03-21T03:07:53.486Z,100893.83
2023-03-21T03:09:03.899Z,100891.8
2023-03-21T03:10:08.165Z,100891.39
2023-03-21T03:11:12.489Z,100886.79
2023-03-21T03:12:16.764Z,100893.21
2023-03-21T03:13:21.116Z,100891.88
2023-03-21T03:15:02.930Z,100888.36
2023-03-21T03:16:08.082Z,100892.86
2023-03-21T03:17:12.463Z,100895.48
2023-03-21T03:18:16.771Z,100894.89
2023-03-21T03:19:21.071Z,100883.28
2023-03-21T03:20:25.366Z,100892.91
2023-03-21T03:21:29.686Z,100887.65
2023-03-21T03:22:33.992Z,100886.38
2023-03-21T03:23:38.294Z,100886.55
2023-03-21T03:24:42.833Z,100884.15
2023-03-21T03:25:47.168Z,100889.44
2023-03-21T03:26:51.450Z,100891.33
2023-03-21T03:27:55.746Z,100886.97
2023-03-21T03:29:00.022Z,100887.72
2023-03-21T03:30:04.331Z,100888.06
2023-03-21T03:31:11.523Z,100880.81
2023-03-21T03:32:16.493Z,100892.76
2023-03-21T03:33:20.793Z,100891.28
2023-03-21T03:34:25.115Z,100886.82
2023-03-21T03:35:29.418Z,100887.95
2023-03-21T03:36:34.718Z,100889.22
2023-03-21T03:37:39.188Z,100883.8
2023-03-21T03:38:43.515Z,100886
2023-03-21T03:39:47.837Z,100889.08
2023-03-21T03:40:52.134Z,100888.26
2023-03-21T03:42:29.111Z,100889.77
2023-03-21T03:43:33.496Z,100896.06
2023-03-21T03:44:37.834Z,100897.05
2023-03-21T03:45:42.137Z,100894.03
2023-03-21T03:46:46.467Z,100894.58
2023-03-21T03:47:58.312Z,100888.78
2023-03-21T03:49:02.679Z,100892.17
2023-03-21T03:50:07.033Z,100892.38
2023-03-21T03:51:11.397Z,100894.03
2023-03-21T03:52:15.697Z,100899.04
2023-03-21T03:53:20.029Z,100898.88
2023-03-21T03:54:24.352Z,100898.46
2023-03-21T03:55:28.700Z,100893.52
2023-03-21T03:56:33.075Z,100900.14
2023-03-21T03:57:37.393Z,100900.14
2023-03-21T03:58:46.983Z,100896.06
2023-03-21T03:59:51.302Z,100897.05
2023-03-21T04:00:55.714Z,100895.72
2023-03-21T04:02:00.172Z,100901.34
2023-03-21T04:03:04.869Z,100895.37
2023-03-21T04:04:14.585Z,100896.2
2023-03-21T04:05:19.021Z,100900.41
2023-03-21T04:06:23.329Z,100900.8
2023-03-21T04:07:27.715Z,100896.77
2023-03-21T04:08:31.994Z,100898.45
2023-03-21T04:09:45.415Z,100901.72
2023-03-21T04:10:49.726Z,100900.48
2023-03-21T04:11:54.035Z,100900.8
2023-03-21T04:12:58.295Z,100898.73
2023-03-21T04:14:02.604Z,100901.2
2023-03-21T04:15:12.025Z,100908.18
2023-03-21T04:16:16.447Z,100905.44
2023-03-21T04:17:20.893Z,100902.48
2023-03-21T04:18:25.196Z,100902.81
2023-03-21T04:19:29.571Z,100902.92
2023-03-21T04:20:44.766Z,100906.02
2023-03-21T04:21:49.546Z,100904.4
2023-03-21T04:22:53.811Z,100906.5
2023-03-21T04:23:58.108Z,100907.34
2023-03-21T04:25:02.432Z,100904.5
2023-03-21T04:26:06.722Z,100906.77
2023-03-21T04:27:11.302Z,100907.42
2023-03-21T04:28:15.621Z,100904.98
2023-03-21T04:29:19.888Z,100904.05
2023-03-21T04:30:24.191Z,100914.12
2023-03-21T04:31:28.717Z,100907.42
2023-03-21T04:32:33.087Z,100909.38
2023-03-21T04:33:37.504Z,100911.2
2023-03-21T04:34:41.964Z,100911.51
2023-03-21T04:35:46.345Z,100910.66
2023-03-21T04:36:50.728Z,100911.92
2023-03-21T04:37:55.074Z,100915.56
2023-03-21T04:38:59.347Z,100915.73
2023-03-21T04:40:03.823Z,100912.47
2023-03-21T04:41:08.310Z,100919
2023-03-21T04:42:12.668Z,100913.81
2023-03-21T04:43:17.233Z,100915.39
2023-03-21T04:44:21.503Z,100913.95
2023-03-21T04:45:25.782Z,100906.84
2023-03-21T04:46:30.068Z,100912.47
2023-03-21T04:47:34.382Z,100915.33
2023-03-21T04:48:39.034Z,100912.58
2023-03-21T04:49:43.360Z,100914.34
2023-03-21T04:50:47.666Z,100917.02
2023-03-21T04:51:51.965Z,100915.44
2023-03-21T04:52:56.268Z,100909.25
2023-03-21T04:54:00.586Z,100918.25
2023-03-21T04:55:04.932Z,100917.7
2023-03-21T04:56:09.196Z,100915.41
2023-03-21T04:57:13.587Z,100915.98
2023-03-21T04:58:17.868Z,100917.63
2023-03-21T04:59:22.172Z,100914.5
2023-03-21T05:00:26.463Z,100910.92
2023-03-21T05:01:31.034Z,100912.54
2023-03-21T05:02:35.468Z,100913.01
2023-03-21T05:03:39.851Z,100925.36
2023-03-21T05:04:44.392Z,100920.98
2023-03-21T05:05:48.676Z,100921.73
2023-03-21T05:06:53.023Z,100915.52
2023-03-21T05:07:57.358Z,100921.5
2023-03-21T05:09:01.729Z,100919.45
2023-03-21T05:10:06.078Z,100922.06
2023-03-21T05:11:10.359Z,100922.11
2023-03-21T05:12:14.623Z,100923.69
2023-03-21T05:13:18.935Z,100921.3
2023-03-21T05:14:23.270Z,100921.27
2023-03-21T05:15:27.580Z,100922.13
2023-03-21T05:16:32.073Z,100922.57
2023-03-21T05:17:36.410Z,100927.48
2023-03-21T05:18:40.717Z,100927.66
2023-03-21T05:19:45.033Z,100928.69
2023-03-21T05:20:49.341Z,100934.84
2023-03-21T05:21:53.649Z,100929.38
2023-03-21T05:22:57.997Z,100933.25
2023-03-21T05:24:02.312Z,100939.78
2023-03-21T05:25:06.581Z,100933.42
2023-03-21T05:26:10.880Z,100940.47
2023-03-21T05:27:15.238Z,100928.41
2023-03-21T05:28:19.535Z,100930.61
2023-03-21T05:29:23.871Z,100938.89
2023-03-21T05:30:28.159Z,100937.48
2023-03-21T05:31:32.427Z,100934.31
2023-03-21T05:32:36.734Z,100938.34
2023-03-21T05:33:41.045Z,100932.05
2023-03-21T05:34:45.351Z,100932.05
2023-03-21T05:35:49.681Z,100934.73
2023-03-21T05:36:54.096Z,100929.02
2023-03-21T05:37:58.444Z,100935.66
2023-03-21T05:39:03.016Z,100928.61
2023-03-21T05:40:07.394Z,100932.7
2023-03-21T05:41:11.682Z,100932.7
2023-03-21T05:42:16.025Z,100935.52
2023-03-21T05:43:20.343Z,100938.37
2023-03-21T05:44:24.622Z,100933.59
2023-03-21T05:45:28.928Z,100937.2
2023-03-21T05:46:33.342Z,100934.66
2023-03-21T05:47:37.795Z,100935.59
2023-03-21T05:48:42.237Z,100943.7
2023-03-21T05:49:46.485Z,100939.86
2023-03-21T05:50:50.769Z,100938.52
2023-03-21T05:51:57.821Z,100931.54
2023-03-21T05:53:02.121Z,100937.38
2023-03-21T05:54:06.396Z,100935.7
2023-03-21T05:55:10.712Z,100930
2023-03-21T05:56:15.010Z,100942.16
2023-03-21T05:57:19.285Z,100937.86
2023-03-21T05:58:23.553Z,100935.59
2023-03-21T05:59:27.851Z,100940.61
2023-03-21T06:00:32.145Z,100939.86
2023-03-21T06:01:36.446Z,100942.61
2023-03-21T06:02:40.958Z,100944.11
2023-03-21T06:03:45.499Z,100945.18
2023-03-21T06:04:49.842Z,100948.38
2023-03-21T06:05:54.147Z,100951.27
2023-03-21T06:06:58.471Z,100951.84
2023-03-21T06:08:02.824Z,100951.7
2023-03-21T06:09:07.121Z,100951.19
2023-03-21T06:10:11.556Z,100950.09
2023-03-21T06:11:15.865Z,100949.16
2023-03-21T06:12:20.153Z,100950.33
2023-03-21T06:13:24.465Z,100946.52
2023-03-21T06:14:28.770Z,100945.27
2023-03-21T06:15:33.062Z,100951.87
2023-03-21T06:16:37.362Z,100951.19
2023-03-21T06:17:41.701Z,100953.11
2023-03-21T06:18:45.999Z,100951.63
2023-03-21T06:19:50.290Z,100949.5
2023-03-21T06:20:54.611Z,100948.98
2023-03-21T06:21:58.899Z,100956.33
2023-03-21T06:23:03.195Z,100955.41
2023-03-21T06:24:07.535Z,100949.15
2023-03-21T06:25:11.830Z,100951.38
2023-03-21T06:26:16.114Z,100957.36
2023-03-21T06:27:20.417Z,100956.53
2023-03-21T06:28:24.715Z,100952.34
2023-03-21T06:29:29.004Z,100955.03
2023-03-21T06:30:33.399Z,100954.1
2023-03-21T06:31:37.849Z,100947.57
2023-03-21T06:32:42.596Z,100948.98
2023-03-21T06:33:46.964Z,100954.69
2023-03-21T06:34:51.259Z,100951.17
2023-03-21T06:35:55.754Z,100956.95
2023-03-21T06:37:00.109Z,100953.58
2023-03-21T06:38:04.380Z,100960.76
2023-03-21T06:39:09.240Z,100961
2023-03-21T06:40:13.530Z,100958.31
2023-03-21T06:41:17.856Z,100959.52
2023-03-21T06:42:22.168Z,100954.64
2023-03-21T06:43:26.490Z,100954.02
2023-03-21T06:44:30.824Z,100961.72
2023-03-21T06:45:35.357Z,100960.47
2023-03-21T06:46:40.565Z,100963.16
2023-03-21T06:47:47.557Z,100969.41
2023-03-21T06:48:51.943Z,100960.55
2023-03-21T06:49:56.240Z,100958.48
2023-03-21T06:51:00.532Z,100963.56
2023-03-21T06:52:04.863Z,100964.02
2023-03-21T06:53:09.225Z,100964.12
2023-03-21T06:54:13.600Z,100968.59
2023-03-21T06:55:17.938Z,100966.16
2023-03-21T06:56:22.220Z,100972.79
2023-03-21T06:57:26.507Z,100973.62
2023-03-21T06:58:30.818Z,100965.92
2023-03-21T06:59:35.114Z,100968.13
2023-03-21T07:00:39.617Z,100971.14
2023-03-21T07:01:43.951Z,100972.97
2023-03-21T07:02:51.343Z,100974.23
2023-03-21T07:03:55.747Z,100970.15
2023-03-21T07:05:00.133Z,100973.25
2023-03-21T07:06:04.544Z,100970.63
2023-03-21T07:07:08.882Z,100977.84
2023-03-21T07:08:13.181Z,100980.31
2023-03-21T07:09:17.511Z,100974.55
2023-03-21T07:10:21.784Z,100983
2023-03-21T07:11:26.065Z,100978.56
2023-03-21T07:12:30.391Z,100979.25
2023-03-21T07:13:34.677Z,100984.84
2023-03-21T07:14:39.004Z,100983.44
2023-03-21T07:15:43.346Z,100979.84
2023-03-21T07:16:47.805Z,100982.17
2023-03-21T07:17:52.202Z,100983.98
2023-03-21T07:18:56.485Z,100988.34
2023-03-21T07:20:00.793Z,100986.49
2023-03-21T07:21:05.076Z,100984.98
2023-03-21T07:22:09.338Z,100982.2
2023-03-21T07:23:13.694Z,100990.58
2023-03-21T07:24:20.565Z,100983.53
2023-03-21T07:25:24.904Z,100986.31
2023-03-21T07:26:29.342Z,100987.52
2023-03-21T07:27:33.646Z,100984.77
2023-03-21T07:28:37.979Z,100992.52
2023-03-21T07:29:42.265Z,100989.25
2023-03-21T07:30:46.581Z,100992.48
2023-03-21T07:31:50.991Z,100990.66
2023-03-21T07:32:55.411Z,100994.27
2023-03-21T07:33:59.753Z,100992.28
2023-03-21T07:35:04.068Z,100986.41
2023-03-21T07:36:08.413Z,100991.83
2023-03-21T07:37:13.012Z,100992.18
2023-03-21T07:38:17.312Z,100995.38
2023-03-21T07:39:21.632Z,100995.85
2023-03-21T07:40:26.029Z,100996.44
2023-03-21T07:41:30.321Z,100995.44
2023-03-21T07:42:34.629Z,100996.84
2023-03-21T07:43:40.436Z,100995.85
2023-03-21T07:44:44.779Z,100996.5
2023-03-21T07:45:49.184Z,100999.77
2023-03-21T07:46:53.573Z,100995.81
2023-03-21T07:47:57.972Z,101004.3
2023-03-21T07:49:02.307Z,101003.13
2023-03-21T07:50:06.587Z,100996.16
2023-03-21T07:51:10.903Z,100998.01
2023-03-21T07:52:15.264Z,101002.03
2023-03-21T07:53:19.605Z,101000.31
2023-03-21T07:54:23.915Z,101001.08
2023-03-21T07:55:28.277Z,101002.11
2023-03-21T07:56:32.604Z,101001.88
2023-03-21T07:57:36.916Z,100999.55
2023-03-21T07:58:41.212Z,101006.59
2023-03-21T07:59:45.507Z,101008.27
2023-03-21T08:00:49.882Z,101006.52
2023-03-21T08:01:54.276Z,100998.9
2023-03-21T08:03:00.229Z,101009.03
2023-03-21T08:04:04.650Z,101006.7
2023-03-21T08:05:09.009Z,101006.77
2023-03-21T08:06:13.333Z,101009.03
2023-03-21T08:07:17.659Z,101004.09
2023-03-21T08:08:23.018Z,101006.7
2023-03-21T08:09:28.064Z,101006.22
2023-03-21T08:10:34.560Z,101008.55
2023-03-21T08:11:38.864Z,101002.92
2023-03-21T08:12:43.146Z,101009.27
2023-03-21T08:13:47.421Z,101009.55
2023-03-21T08:14:51.733Z,101009.61
2023-03-21T08:15:56.299Z,101012.46
2023-03-21T08:17:00.886Z,101011.13
2023-03-21T08:18:05.340Z,101015.91
2023-03-21T08:19:09.659Z,101012.8
2023-03-21T08:20:13.930Z,101009.78
2023-03-21T08:21:18.210Z,101011.47
2023-03-21T08:22:22.521Z,101010.5
2023-03-21T08:23:26.841Z,101016.2
2023-03-21T08:24:31.162Z,101016.78
2023-03-21T08:25:35.632Z,101011.49
2023-03-21T08:26:40.408Z,101019.19
2023-03-21T08:27:44.778Z,101015.16
2023-03-21T08:28:49.068Z,101025.81
2023-03-21T08:29:53.378Z,101023.03
2023-03-21T08:30:57.827Z,101024.13
2023-03-21T08:32:02.174Z,101026.87
2023-03-21T08:33:06.457Z,101024.78
2023-03-21T08:34:10.793Z,101026.48
2023-03-21T08:35:15.061Z,101022.88
2023-03-21T08:36:19.544Z,101021.89
2023-03-21T08:37:23.951Z,101024.56
2023-03-21T08:38:28.229Z,101026.42
2023-03-21T08:39:32.818Z,101024.56
2023-03-21T08:40:37.230Z,101032.6
2023-03-21T08:41:41.592Z,101030.34
2023-03-21T08:42:45.910Z,101032.12
2023-03-21T08:43:50.250Z,101031.67
2023-03-21T08:44:54.597Z,101028.45
2023-03-21T08:46:00.023Z,101031.27
2023-03-21T08:47:04.356Z,101026.31
2023-03-21T08:48:08.818Z,101024.73
2023-03-21T08:49:13.180Z,101030.16
2023-03-21T08:50:17.487Z,101029.87
2023-03-21T08:51:21.802Z,101031.98
2023-03-21T08:52:26.153Z,101036.57
2023-03-21T08:53:30.584Z,101039.53
2023-03-21T08:54:34.919Z,101041.8
2023-03-21T08:55:39.901Z,101034.81
2023-03-21T08:56:44.392Z,101042.09
2023-03-21T08:57:48.704Z,101037.56
2023-03-21T08:58:53.027Z,101033.64
2023-03-21T08:59:57.361Z,101028.12
2023-03-21T09:01:01.676Z,101036.64
2023-03-21T09:02:06.096Z,101034.7
2023-03-21T09:03:12.770Z,101039.55
2023-03-21T09:04:17.126Z,101044.22
2023-03-21T09:05:21.555Z,101036.52
2023-03-21T09:06:25.867Z,101039.55
2023-03-21T09:07:30.174Z,101039.3
2023-03-21T09:08:34.485Z,101042.39
2023-03-21T09:09:38.781Z,101042.73
2023-03-21T09:10:43.183Z,101039.48
2023-03-21T09:11:47.479Z,101045.81
2023-03-21T09:12:51.847Z,101039.47
2023-03-21T09:13:56.160Z,101041.56
2023-03-21T09:15:00.459Z,101039
2023-03-21T09:16:04.832Z,101044.22
2023-03-21T09:17:09.274Z,101048.48
2023-03-21T09:18:13.636Z,101046.5
2023-03-21T09:19:18.029Z,101035.72
2023-03-21T09:20:22.370Z,101041.42
2023-03-21T09:21:26.739Z,101040.7
2023-03-21T09:22:31.033Z,101040.47
2023-03-21T09:23:35.345Z,101043.09
2023-03-21T09:24:39.664Z,101042.23
2023-03-21T09:25:44.039Z,101043.5
2023-03-21T09:26:48.316Z,101043.09
2023-03-21T09:27:52.678Z,101045.25
2023-03-21T09:28:56.988Z,101041.75
2023-03-21T09:30:01.278Z,101044.43
2023-03-21T09:31:05.689Z,101046.66
2023-03-21T09:32:10.065Z,101045.84
2023-03-21T09:33:14.435Z,101052.19
2023-03-21T09:34:18.804Z,101050.44
2023-03-21T09:35:23.085Z,101050.16
2023-03-21T09:36:27.478Z,101051.08
2023-03-21T09:37:32.012Z,101047.06
2023-03-21T09:38:36.367Z,101047.55
2023-03-21T09:39:40.640Z,101048.41
2023-03-21T09:40:45.380Z,101050.22
2023-03-21T09:41:49.665Z,101046.72
2023-03-21T09:42:54.045Z,101045.09
2023-03-21T09:43:58.347Z,101046.5
2023-03-21T09:45:02.636Z,101047.59
2023-03-21T09:46:06.966Z,101043.92
2023-03-21T09:47:13.314Z,101040.45
2023-03-21T09:48:17.785Z,101045.74
2023-03-21T09:49:22.291Z,101047.31
2023-03-21T09:50:26.601Z,101042.44
2023-03-21T09:51:30.877Z,101039.97
2023-03-21T09:52:35.154Z,101036.95
2023-03-21T09:53:39.457Z,101040.55
2023-03-21T09:54:43.779Z,101041.09
2023-03-21T09:55:48.168Z,101046.73
2023-03-21T09:56:52.475Z,101044.52
2023-03-21T09:57:56.787Z,101043.59
2023-03-21T09:59:01.078Z,101039.92
2023-03-21T10:00:05.734Z,101038.01
2023-03-21T10:01:10.236Z,101042.78
2023-03-21T10:02:14.563Z,101038.36
2023-03-21T10:03:19.072Z,101037.08
2023-03-21T10:04:23.562Z,101036.73
2023-03-21T10:05:28.089Z,101032.23
2023-03-21T10:06:32.340Z,101035.84
2023-03-21T10:07:36.655Z,101035.05
2023-03-21T10:08:40.934Z,101035.22
2023-03-21T10:09:45.351Z,101032.47
2023-03-21T10:10:49.654Z,101024.98
2023-03-21T10:11:54.163Z,101032.6
2023-03-21T10:12:58.505Z,101035.45
2023-03-21T10:14:02.822Z,101035.45
2023-03-21T10:15:07.105Z,101029.58
2023-03-21T10:16:11.639Z,101030.98
2023-03-21T10:17:15.995Z,101034.52
2023-03-21T10:18:20.304Z,101031.84
2023-03-21T10:19:24.580Z,101034.01
2023-03-21T10:20:28.872Z,101032.84
2023-03-21T10:22:02.585Z,101030.39
2023-03-21T10:23:07.988Z,101033.3
2023-03-21T10:24:12.396Z,101023.64
2023-03-21T10:25:16.679Z,101034.94
2023-03-21T10:26:22.527Z,101023.87
2023-03-21T10:27:26.851Z,101036.74
2023-03-21T10:28:51.904Z,101033.37
2023-03-21T10:29:57.137Z,101034.71
2023-03-21T10:31:01.461Z,101038.49
2023-03-21T10:32:05.908Z,101045.13
2023-03-21T10:33:10.859Z,101035.19
2023-03-21T10:34:15.347Z,101035.99
2023-03-21T10:35:19.658Z,101037.68
2023-03-21T10:36:24.063Z,101034.94
2023-03-21T10:37:28.350Z,101040.24
2023-03-21T10:38:32.654Z,101048.62
2023-03-21T10:39:36.932Z,101039.31
2023-03-21T10:40:41.538Z,101044.97
2023-03-21T10:41:45.845Z,101040.73
2023-03-21T10:42:50.177Z,101045.55
2023-03-21T10:43:54.497Z,101042
2023-03-21T10:44:58.790Z,101039.91
2023-03-21T10:46:03.486Z,101032.8
2023-03-21T10:47:08.538Z,101034.95
2023-03-21T10:48:13.661Z,101031.41
2023-03-21T10:49:18.182Z,101037.12
2023-03-21T10:50:22.694Z,101034.86
2023-03-21T10:51:27.095Z,101045.72
2023-03-21T10:52:31.423Z,101041.7
2023-03-21T10:53:35.737Z,101039.5
2023-03-21T10:54:40.146Z,101039.86
2023-03-21T10:55:44.453Z,101033.45
2023-03-21T10:56:48.726Z,101031.76
2023-03-21T10:57:53.036Z,101037
2023-03-21T10:58:57.322Z,101033.27
2023-03-21T11:00:01.632Z,101026.99
2023-03-21T11:01:06.163Z,101028.27
2023-03-21T11:02:10.757Z,101036.14
2023-03-21T11:03:15.134Z,101029.09
2023-03-21T11:04:19.425Z,101026.77
2023-03-21T11:05:23.744Z,101028.39
2023-03-21T11:06:28.038Z,101023.73
2023-03-21T11:07:32.314Z,101026.48
2023-03-21T11:08:36.616Z,101019.78
2023-03-21T11:09:40.966Z,101023.2
2023-03-21T11:10:45.310Z,101025.43
2023-03-21T11:11:49.688Z,101017.84
2023-03-21T11:12:53.982Z,101022.28
2023-03-21T11:13:58.271Z,101022.56
2023-03-21T11:15:02.591Z,101019.09
2023-03-21T11:16:06.905Z,101016.77
2023-03-21T11:17:11.530Z,101018.2
2023-03-21T11:18:15.916Z,101016.86
2023-03-21T11:19:20.240Z,101017.11
2023-03-21T11:20:24.555Z,101016.98
2023-03-21T11:21:30.823Z,101016.92
2023-03-21T11:22:35.120Z,101017.97
2023-03-21T11:23:39.449Z,101012.14
2023-03-21T11:24:43.733Z,101010.88
2023-03-21T11:25:48.033Z,101010.16
2023-03-21T11:26:52.382Z,101011.34
2023-03-21T11:27:56.712Z,101007.69
2023-03-21T11:29:01.048Z,101005.23
2023-03-21T11:30:05.514Z,101014.72
2023-03-21T11:31:09.943Z,101009.77
2023-03-21T11:32:14.370Z,101002.25
2023-03-21T11:33:18.690Z,101009.89
2023-03-21T11:34:22.983Z,101004.75
2023-03-21T11:35:27.291Z,101005.58
2023-03-21T11:36:31.588Z,101007.03
2023-03-21T11:37:35.874Z,101001.44
2023-03-21T11:38:40.233Z,101004.94
2023-03-21T11:39:44.563Z,100997.81
2023-03-21T11:40:48.878Z,101000.95
2023-03-21T11:41:53.196Z,100993.37
2023-03-21T11:42:57.737Z,100991.26
2023-03-21T11:44:02.076Z,100989.69
2023-03-21T11:45:06.380Z,100997.02
2023-03-21T11:46:10.907Z,100990.46
2023-03-21T11:47:15.280Z,100994.11
2023-03-21T11:48:19.816Z,100992.88
2023-03-21T11:49:24.176Z,100986.88
2023-03-21T11:50:28.481Z,100987.91
2023-03-21T11:51:32.760Z,100988.16
2023-03-21T11:52:37.056Z,100984.94
2023-03-21T11:53:41.411Z,100983.49
2023-03-21T11:54:45.741Z,100987.72
2023-03-21T11:55:50.067Z,100979.52
2023-03-21T11:56:54.424Z,100984.46
2023-03-21T11:58:12.028Z,100979.37
2023-03-21T11:59:18.550Z,100975.36
2023-03-21T12:00:22.894Z,100976.63
2023-03-21T12:01:27.192Z,100982.47
2023-03-21T12:02:31.516Z,100977.53
2023-03-21T12:03:49.129Z,100979.8
2023-03-21T12:04:53.651Z,100984.05
2023-03-21T12:05:57.941Z,100984.19
2023-03-21T12:07:02.225Z,100979.41
2023-03-21T12:08:06.528Z,100979.82
2023-03-21T12:09:10.821Z,100977.89
2023-03-21T12:10:15.207Z,100977.31
2023-03-21T12:11:19.618Z,100980.98
2023-03-21T12:12:39.040Z,100971.33
2023-03-21T12:13:43.640Z,100975.34
2023-03-21T12:14:47.938Z,100971.74
2023-03-21T12:15:56.005Z,100967.3
2023-03-21T12:17:00.356Z,100969.57
2023-03-21T12:18:04.712Z,100965.48
2023-03-21T12:19:09.023Z,100971.74
2023-03-21T12:20:13.367Z,100973.25
2023-03-21T12:21:17.738Z,100963.94
2023-03-21T12:22:22.082Z,100967.12
2023-03-21T12:23:26.563Z,100965.92
2023-03-21T12:24:30.925Z,100963.76
2023-03-21T12:25:35.640Z,100957.12
2023-03-21T12:26:40.559Z,100964.41
2023-03-21T12:27:44.965Z,100964.06
2023-03-21T12:28:49.260Z,100962.31
2023-03-21T12:29:53.572Z,100959.35
2023-03-21T12:30:57.952Z,100956.33
2023-03-21T12:32:02.329Z,100955.57
2023-03-21T12:33:06.630Z,100955.57
2023-03-21T12:34:10.924Z,100955.57
2023-03-21T12:35:15.209Z,100952.03
2023-03-21T12:36:19.737Z,100955.64
2023-03-21T12:37:24.138Z,100953.78
2023-03-21T12:38:28.468Z,100954.23
2023-03-21T12:39:32.747Z,100946.37
2023-03-21T12:40:37.056Z,100947.25
2023-03-21T12:41:41.323Z,100944.41
2023-03-21T12:42:45.665Z,100951.45
2023-03-21T12:43:49.946Z,100948.7
2023-03-21T12:44:56.121Z,100949.97
2023-03-21T12:46:00.448Z,100946.02
2023-03-21T12:47:05.025Z,100943.78
2023-03-21T12:48:09.676Z,100943.23
2023-03-21T12:49:14.014Z,100939.56
2023-03-21T12:50:18.325Z,100944.13
2023-03-21T12:51:22.618Z,100939.22
2023-03-21T12:52:26.907Z,100945.02
2023-03-21T12:53:31.196Z,100941.45
2023-03-21T12:54:35.497Z,100938.64
2023-03-21T12:55:40.615Z,100942.87
2023-03-21T12:56:45.097Z,100935.94
2023-03-21T12:57:58.512Z,100929.58
2023-03-21T12:59:02.793Z,100932.95
2023-03-21T13:00:07.095Z,100931.03
2023-03-21T13:01:11.536Z,100928.97
2023-03-21T13:02:15.918Z,100930.21